Time;durP1;ratioP1;P1;durP2;ratioP2;P2;SDS_P1;SDS_P2;PMS_P1;PMS_P2;Temp;Humidity;BMP_temperature;BMP_pressure;BME280_temperature;BME280_humidity;BME280_pressure;Samples;Min_cycle;Max_cycle;Signal;HPM_P1;HPM_P2
2021/06/24 00:01:51;;;;;;;13.97;7.40;;;25.00;99.90;;;;;;5095069;28;20194;-66
2021/06/24 00:04:17;;;;;;;12.43;6.90;;;25.00;99.90;;;;;;5095248;28;20654;-67
2021/06/24 00:06:42;;;;;;;12.50;6.33;;;25.20;99.90;;;;;;5095022;28;20281;-65
2021/06/24 00:09:08;;;;;;;15.27;7.20;;;25.30;99.90;;;;;;5094968;28;20494;-66
2021/06/24 00:11:34;;;;;;;13.67;7.10;;;25.30;99.90;;;;;;5094950;28;20707;-65
2021/06/24 00:14:01;;;;;;;11.47;7.03;;;25.30;99.90;;;;;;5093824;28;20419;-66
2021/06/24 00:16:27;;;;;;;11.00;7.73;;;25.30;99.90;;;;;;5094791;28;20422;-65
2021/06/24 00:18:53;;;;;;;20.07;8.33;;;25.30;99.90;;;;;;5093685;28;20431;-65
2021/06/24 00:21:19;;;;;;;13.67;7.70;;;25.30;99.90;;;;;;5093327;28;20430;-66
2021/06/24 00:23:45;;;;;;;19.27;8.33;;;25.40;99.90;;;;;;5094678;28;20460;-67
2021/06/24 00:26:10;;;;;;;12.63;7.40;;;25.50;99.90;;;;;;5094908;28;20191;-65
2021/06/24 00:28:36;;;;;;;12.63;6.93;;;25.50;99.90;;;;;;5094963;28;20483;-65
2021/06/24 00:31:02;;;;;;;15.10;7.60;;;25.60;99.90;;;;;;5094577;28;20276;-65
2021/06/24 00:33:30;;;;;;;12.93;8.23;;;25.50;99.90;;;;;;5095092;28;20249;-66
2021/06/24 00:35:56;;;;;;;9.63;6.07;;;25.50;99.90;;;;;;5094446;28;20852;-65
2021/06/24 00:38:21;;;;;;;12.20;6.90;;;25.40;99.90;;;;;;5094835;28;20424;-65
2021/06/24 00:40:47;;;;;;;12.50;6.73;;;25.20;99.90;;;;;;5092979;28;20277;-66
2021/06/24 00:43:15;;;;;;;11.73;6.90;;;25.00;99.90;;;;;;5094669;28;20702;-67
2021/06/24 00:45:41;;;;;;;11.27;6.47;;;24.80;99.90;;;;;;5093781;28;20286;-65
2021/06/24 00:48:08;;;;;;;10.40;7.27;;;24.80;99.90;;;;;;5092975;28;20538;-65
2021/06/24 00:50:36;;;;;;;15.97;7.80;;;24.70;99.90;;;;;;5092915;28;20498;-65
2021/06/24 00:53:02;;;;;;;12.47;7.10;;;24.60;99.90;;;;;;5094451;28;20763;-67
2021/06/24 00:55:41;;;;;;;15.33;7.63;;;24.70;99.90;;;;;;5094260;28;20940;-68
2021/06/24 00:58:08;;;;;;;10.53;6.00;;;24.60;99.90;;;;;;5094402;28;20419;-66
2021/06/24 01:00:35;;;;;;;11.77;7.23;;;24.60;99.90;;;;;;5094030;28;20463;-66
2021/06/24 01:03:01;;;;;;;13.00;7.30;;;24.60;99.90;;;;;;5092852;28;20477;-67
2021/06/24 01:05:26;;;;;;;12.90;5.70;;;24.60;99.90;;;;;;5094038;28;20422;-68
2021/06/24 01:07:52;;;;;;;16.63;7.30;;;24.60;99.90;;;;;;5094144;28;20218;-67
2021/06/24 01:10:18;;;;;;;12.10;7.03;;;24.70;99.90;;;;;;5093950;28;20553;-67
2021/06/24 01:12:43;;;;;;;12.70;7.13;;;24.60;99.90;;;;;;5094219;28;20208;-67
2021/06/24 01:15:09;;;;;;;12.30;6.80;;;24.70;99.90;;;;;;5092813;28;20229;-65
2021/06/24 01:17:35;;;;;;;13.07;8.00;;;24.80;99.90;;;;;;5094008;28;20272;-66
2021/06/24 01:20:01;;;;;;;14.03;7.00;;;24.90;99.90;;;;;;5093863;28;20799;-65
2021/06/24 01:22:26;;;;;;;8.10;7.03;;;24.80;99.90;;;;;;5093833;28;20209;-66
2021/06/24 01:24:52;;;;;;;14.67;7.47;;;24.80;99.90;;;;;;5092489;28;20202;-65
2021/06/24 01:27:17;;;;;;;13.73;7.60;;;24.80;99.90;;;;;;5093769;28;20191;-65
2021/06/24 01:29:43;;;;;;;11.60;7.43;;;24.80;99.90;;;;;;5093758;28;20716;-67
2021/06/24 01:32:09;;;;;;;17.73;7.00;;;24.90;99.90;;;;;;5093671;28;20657;-66
2021/06/24 01:34:38;;;;;;;14.43;9.10;;;24.80;99.90;;;;;;5109477;28;20178;-67
2021/06/24 01:37:04;;;;;;;12.07;7.00;;;24.80;99.90;;;;;;5092285;28;20202;-68
2021/06/24 01:39:30;;;;;;;16.50;6.87;;;24.70;99.90;;;;;;5093736;28;20422;-65
2021/06/24 01:42:00;;;;;;;15.87;7.43;;;24.60;99.90;;;;;;5093552;28;20434;-66
2021/06/24 01:44:36;;;;;;;7.80;6.50;;;24.70;99.90;;;;;;5092402;28;20181;-65
2021/06/24 01:47:03;;;;;;;15.37;7.50;;;24.60;99.90;;;;;;5093652;28;20407;-65
2021/06/24 01:49:30;;;;;;;12.17;7.40;;;24.70;99.90;;;;;;5093527;28;20471;-66
2021/06/24 01:51:57;;;;;;;10.70;7.10;;;24.70;99.90;;;;;;5092266;28;20791;-67
2021/06/24 01:54:23;;;;;;;8.47;6.30;;;24.60;99.90;;;;;;5092306;28;20418;-67
2021/06/24 01:56:49;;;;;;;14.97;7.10;;;24.60;99.90;;;;;;5093917;28;20443;-66
2021/06/24 01:59:15;;;;;;;8.97;6.73;;;24.60;99.90;;;;;;5097546;28;20403;-66
2021/06/24 02:01:41;;;;;;;11.60;7.57;;;24.50;99.90;;;;;;5097503;28;20424;-67
2021/06/24 02:04:07;;;;;;;13.13;7.20;;;24.50;99.90;;;;;;5096364;28;20488;-67
2021/06/24 02:06:32;;;;;;;12.60;7.17;;;24.40;99.90;;;;;;5113088;28;20442;-67
2021/06/24 02:08:58;;;;;;;10.67;8.53;;;24.40;99.90;;;;;;5097202;28;20207;-65
2021/06/24 02:11:23;;;;;;;11.97;7.53;;;24.40;99.90;;;;;;5097200;28;20194;-67
2021/06/24 02:13:49;;;;;;;10.23;7.10;;;24.30;99.90;;;;;;5097719;28;20181;-65
2021/06/24 02:16:15;;;;;;;12.17;6.90;;;24.30;99.90;;;;;;5095955;28;20198;-67
2021/06/24 02:18:41;;;;;;;11.30;7.87;;;24.30;99.90;;;;;;5097593;28;20915;-68
2021/06/24 02:21:06;;;;;;;9.73;7.40;;;24.30;99.90;;;;;;5096997;28;20218;-65
2021/06/24 02:23:32;;;;;;;10.67;6.30;;;24.30;99.90;;;;;;5096741;28;20386;-65
2021/06/24 02:25:58;;;;;;;10.30;6.57;;;24.30;99.90;;;;;;5095635;28;20520;-65
2021/06/24 02:28:24;;;;;;;10.47;6.70;;;24.20;99.90;;;;;;5097310;28;20213;-67
2021/06/24 02:30:49;;;;;;;10.43;6.90;;;24.20;99.90;;;;;;5096831;28;20198;-65
2021/06/24 02:33:17;;;;;;;18.07;7.93;;;24.20;99.90;;;;;;5095710;28;20221;-65
2021/06/24 02:35:48;;;;;;;11.53;7.97;;;24.10;99.90;;;;;;5096756;28;20221;-65
2021/06/24 02:38:14;;;;;;;9.80;7.03;;;24.10;99.90;;;;;;5097249;28;20781;-67
2021/06/24 02:40:40;;;;;;;11.90;7.13;;;24.10;99.90;;;;;;5095397;28;20444;-65
2021/06/24 02:43:05;;;;;;;9.67;7.00;;;24.00;99.90;;;;;;5096919;28;20413;-65
2021/06/24 02:45:32;;;;;;;9.80;6.87;;;24.00;99.90;;;;;;5112294;28;20471;-66
2021/06/24 02:47:57;;;;;;;12.47;6.20;;;24.10;99.90;;;;;;5096722;28;20521;-65
2021/06/24 02:50:24;;;;;;;14.10;6.80;;;24.10;99.90;;;;;;5096516;28;20422;-66
2021/06/24 02:52:50;;;;;;;11.50;8.23;;;24.10;99.90;;;;;;5096680;28;20173;-66
2021/06/24 02:55:15;;;;;;;11.50;7.40;;;24.00;99.90;;;;;;5095208;28;20433;-66
2021/06/24 02:57:41;;;;;;;12.27;7.40;;;24.00;99.90;;;;;;5095146;28;20640;-67
2021/06/24 03:00:09;;;;;;;13.33;6.93;;;24.00;99.90;;;;;;5094960;28;20565;-65
2021/06/24 03:02:36;;;;;;;9.77;6.90;;;24.00;99.90;;;;;;5096509;28;20917;-66
2021/06/24 03:05:02;;;;;;;11.70;8.50;;;24.00;99.90;;;;;;5096501;28;20408;-67
2021/06/24 03:07:28;;;;;;;10.60;7.60;;;24.00;99.90;;;;;;5094519;28;20433;-66
2021/06/24 03:09:53;;;;;;;9.80;7.10;;;24.10;99.90;;;;;;5096131;28;20414;-66
2021/06/24 03:12:19;;;;;;;12.30;6.57;;;24.10;99.90;;;;;;5096133;28;20204;-66
2021/06/24 03:14:44;;;;;;;15.03;6.90;;;24.10;99.90;;;;;;5096150;28;20169;-67
2021/06/24 03:17:10;;;;;;;11.90;7.57;;;24.00;99.90;;;;;;5096015;28;20710;-67
2021/06/24 03:19:36;;;;;;;8.30;6.80;;;24.00;99.90;;;;;;5096201;28;20201;-66
2021/06/24 03:22:01;;;;;;;13.87;7.53;;;24.10;99.90;;;;;;5095932;28;20200;-67
2021/06/24 03:24:27;;;;;;;8.53;7.40;;;24.00;99.90;;;;;;5094756;28;20232;-67
2021/06/24 03:26:53;;;;;;;13.87;9.00;;;24.00;99.90;;;;;;5095738;28;20453;-67
2021/06/24 03:29:18;;;;;;;12.40;6.83;;;24.00;99.90;;;;;;5095811;28;20293;-67
2021/06/24 03:31:45;;;;;;;14.10;7.90;;;23.90;99.90;;;;;;5095398;28;20242;-67
2021/06/24 03:34:11;;;;;;;11.93;8.23;;;24.00;99.90;;;;;;5095687;28;20550;-66
2021/06/24 03:36:36;;;;;;;15.93;6.80;;;24.00;99.90;;;;;;5094357;28;20573;-65
2021/06/24 03:39:03;;;;;;;11.03;6.37;;;24.00;99.90;;;;;;5096129;28;20177;-67
2021/06/24 03:41:28;;;;;;;12.60;7.10;;;24.00;99.90;;;;;;5095517;28;20189;-68
2021/06/24 03:43:56;;;;;;;19.07;7.67;;;23.90;99.90;;;;;;5095966;28;20464;-67
2021/06/24 03:46:24;;;;;;;11.80;6.50;;;24.00;99.90;;;;;;5095414;28;20564;-65
2021/06/24 03:48:51;;;;;;;16.97;8.13;;;24.00;99.90;;;;;;5095822;28;20468;-68
2021/06/24 03:51:18;;;;;;;10.80;7.03;;;24.00;99.90;;;;;;5094084;28;20482;-67
2021/06/24 03:53:43;;;;;;;18.53;8.30;;;24.10;99.90;;;;;;5095769;28;20414;-66
2021/06/24 03:56:10;;;;;;;10.53;7.40;;;24.20;99.90;;;;;;5093927;28;20430;-68
2021/06/24 03:58:36;;;;;;;9.63;7.30;;;24.10;99.90;;;;;;5095664;28;20205;-65
2021/06/24 04:01:02;;;;;;;12.70;8.60;;;24.10;99.90;;;;;;5095126;28;20456;-65
2021/06/24 04:03:27;;;;;;;15.63;8.43;;;24.20;99.90;;;;;;5095414;28;20177;-66
2021/06/24 04:05:53;;;;;;;15.60;8.37;;;24.30;99.90;;;;;;5110674;28;20288;-68
2021/06/24 04:08:19;;;;;;;13.53;9.23;;;24.40;99.90;;;;;;5095466;28;20247;-65
2021/06/24 04:10:45;;;;;;;20.93;10.10;;;24.40;99.90;;;;;;5094988;28;20645;-67
2021/06/24 04:13:10;;;;;;;12.80;9.70;;;24.60;99.90;;;;;;5095225;28;20441;-67
2021/06/24 04:15:36;;;;;;;21.20;9.77;;;24.70;99.90;;;;;;5094947;28;20242;-65
2021/06/24 04:18:06;;;;;;;21.13;10.60;;;24.70;99.90;;;;;;5095063;28;20185;-67
2021/06/24 04:20:33;;;;;;;17.57;9.50;;;24.80;99.90;;;;;;5094110;28;20276;-67
2021/06/24 04:22:59;;;;;;;17.10;9.73;;;24.80;99.90;;;;;;5094402;28;20532;-65
2021/06/24 04:25:25;;;;;;;16.30;9.53;;;24.90;99.90;;;;;;5092553;28;20442;-66
2021/06/24 04:27:51;;;;;;;11.60;9.20;;;25.00;99.90;;;;;;5091990;28;20450;-65
2021/06/24 04:30:19;;;;;;;17.80;8.47;;;25.00;99.90;;;;;;5094117;28;20189;-67
2021/06/24 04:32:45;;;;;;;12.10;9.10;;;25.00;99.90;;;;;;5094729;28;20910;-67
2021/06/24 04:35:12;;;;;;;14.73;9.43;;;25.10;99.90;;;;;;5094494;28;20427;-65
2021/06/24 04:37:38;;;;;;;14.47;8.53;;;25.20;99.90;;;;;;5091824;28;20431;-67
2021/06/24 04:40:07;;;;;;;13.97;9.90;;;25.40;99.90;;;;;;5108012;28;20981;-65
2021/06/24 04:42:32;;;;;;;15.13;8.60;;;25.50;99.90;;;;;;5092393;28;20488;-67
2021/06/24 04:44:58;;;;;;;14.17;8.93;;;25.50;99.90;;;;;;5092223;28;20803;-67
2021/06/24 04:47:24;;;;;;;13.07;8.30;;;25.60;99.90;;;;;;5091984;28;20186;-67
2021/06/24 04:49:50;;;;;;;11.70;7.83;;;25.60;99.90;;;;;;5092155;28;20201;-65
2021/06/24 04:52:16;;;;;;;15.10;9.67;;;25.70;99.90;;;;;;5092205;28;20211;-67
2021/06/24 04:54:42;;;;;;;14.17;8.40;;;25.70;99.90;;;;;;5094084;28;20166;-68
2021/06/24 04:57:08;;;;;;;12.07;8.50;;;25.80;99.90;;;;;;5092744;28;20554;-68
2021/06/24 04:59:33;;;;;;;11.73;8.17;;;25.70;99.90;;;;;;5092869;28;20442;-66
2021/06/24 05:01:59;;;;;;;12.17;8.83;;;25.80;99.90;;;;;;5094038;28;20210;-67
2021/06/24 05:04:25;;;;;;;11.83;8.30;;;25.90;99.90;;;;;;5094105;28;20516;-68
2021/06/24 05:06:53;;;;;;;11.27;7.23;;;26.00;99.90;;;;;;5093647;28;20194;-67
2021/06/24 05:09:25;;;;;;;12.10;7.90;;;25.90;99.90;;;;;;5092650;28;20205;-65
2021/06/24 05:11:50;;;;;;;12.43;7.60;;;25.90;99.90;;;;;;5093989;28;20462;-65
2021/06/24 05:14:16;;;;;;;20.30;8.00;;;26.10;99.90;;;;;;5093997;28;20405;-67
2021/06/24 05:16:42;;;;;;;12.07;7.97;;;26.00;99.90;;;;;;5093963;28;20188;-65
2021/06/24 05:19:08;;;;;;;17.07;8.07;;;26.10;99.90;;;;;;5092120;28;20183;-68
2021/06/24 05:21:34;;;;;;;10.40;7.40;;;26.20;99.90;;;;;;5093128;28;20203;-68
2021/06/24 05:24:00;;;;;;;14.83;8.13;;;26.40;99.90;;;;;;5093181;28;20460;-67
2021/06/24 05:26:26;;;;;;;13.00;7.97;;;26.50;99.90;;;;;;5093759;28;20429;-68
2021/06/24 05:28:52;;;;;;;14.27;8.03;;;26.60;99.90;;;;;;5094074;28;20562;-67
2021/06/24 05:31:17;;;;;;;8.80;6.47;;;26.70;99.90;;;;;;5098367;28;20826;-67
2021/06/24 05:33:43;;;;;;;17.13;8.37;;;26.70;99.90;;;;;;5100864;28;20175;-67
2021/06/24 05:36:09;;;;;;;16.37;7.10;;;26.80;99.90;;;;;;5099084;28;20192;-66
2021/06/24 05:38:34;;;;;;;12.97;6.87;;;27.10;99.90;;;;;;5100730;28;20625;-67
2021/06/24 05:41:00;;;;;;;12.67;6.53;;;26.90;99.90;;;;;;5100243;28;20188;-67
2021/06/24 05:43:26;;;;;;;15.93;6.60;;;27.00;99.90;;;;;;5100217;28;20251;-68
2021/06/24 05:45:51;;;;;;;13.80;6.50;;;27.10;99.90;;;;;;5100222;28;20195;-68
2021/06/24 05:48:17;;;;;;;15.77;7.03;;;27.50;99.90;;;;;;5100539;28;20276;-66
2021/06/24 05:50:43;;;;;;;14.03;6.90;;;27.60;99.90;;;;;;5116053;28;20207;-67
2021/06/24 05:53:09;;;;;;;9.73;6.80;;;27.70;99.90;;;;;;5100234;28;20182;-66
2021/06/24 05:55:47;;;;;;;16.63;7.77;;;27.90;99.90;;;;;;5098825;28;20264;-65
2021/06/24 05:58:15;;;;;;;9.13;6.80;;;28.20;99.90;;;;;;5100181;28;20426;-65
2021/06/24 06:00:41;;;;;;;14.20;7.93;;;28.20;99.90;;;;;;5098699;28;20455;-67
2021/06/24 06:03:06;;;;;;;13.80;7.83;;;28.20;99.90;;;;;;5098377;28;20843;-68
2021/06/24 06:05:33;;;;;;;11.50;6.50;;;28.10;99.90;;;;;;5097924;28;20429;-66
2021/06/24 06:07:59;;;;;;;15.27;6.50;;;27.90;99.90;;;;;;5097250;28;20606;-65
2021/06/24 06:10:25;;;;;;;9.90;7.03;;;28.10;99.90;;;;;;5096391;28;20421;-66
2021/06/24 06:12:51;;;;;;;12.37;6.40;;;28.50;99.90;;;;;;5098453;28;20413;-65
2021/06/24 06:15:17;;;;;;;9.47;6.03;;;28.60;99.90;;;;;;5099028;28;20981;-67
2021/06/24 06:17:42;;;;;;;16.30;7.03;;;28.70;99.90;;;;;;5100047;28;20346;-67
2021/06/24 06:20:08;;;;;;;14.23;6.10;;;28.70;99.90;;;;;;5099114;28;20188;-65
2021/06/24 06:22:34;;;;;;;15.40;6.50;;;28.60;99.90;;;;;;5099778;28;20546;-68
2021/06/24 06:25:01;;;;;;;12.67;7.93;;;28.60;99.90;;;;;;5097961;28;20172;-67
2021/06/24 06:27:27;;;;;;;15.70;6.60;;;28.80;99.90;;;;;;5096859;28;20189;-67
2021/06/24 06:29:53;;;;;;;9.70;6.93;;;28.90;99.90;;;;;;5097077;28;20471;-65
2021/06/24 06:32:19;;;;;;;7.50;6.40;;;29.30;99.90;;;;;;5095877;28;20489;-65
2021/06/24 06:34:45;;;;;;;10.90;6.77;;;29.30;99.90;;;;;;5096920;28;20409;-65
2021/06/24 06:37:11;;;;;;;14.50;6.43;;;29.50;99.90;;;;;;5095714;28;20196;-65
2021/06/24 06:39:36;;;;;;;10.13;6.23;;;29.50;99.90;;;;;;5095612;28;20174;-67
2021/06/24 06:42:02;;;;;;;11.40;6.40;;;29.80;99.90;;;;;;5094172;28;20493;-67
2021/06/24 06:44:28;;;;;;;17.27;7.93;;;29.80;99.90;;;;;;5093016;28;20177;-67
2021/06/24 06:46:53;;;;;;;17.57;6.57;;;29.90;99.90;;;;;;5092278;28;20189;-66
2021/06/24 06:49:19;;;;;;;11.03;6.30;;;30.20;99.90;;;;;;5088539;28;20217;-66
2021/06/24 06:51:45;;;;;;;11.70;6.90;;;29.90;99.90;;;;;;5088790;28;20706;-69
2021/06/24 06:54:11;;;;;;;16.20;7.70;;;29.60;99.90;;;;;;5091044;28;20414;-67
2021/06/24 06:56:36;;;;;;;12.80;6.17;;;29.70;99.90;;;;;;5091323;28;20202;-65
2021/06/24 06:59:05;;;;;;;15.33;6.00;;;29.80;99.90;;;;;;5092345;28;20658;-65
2021/06/24 07:01:31;;;;;;;19.20;8.20;;;29.90;99.90;;;;;;5092781;28;20763;-65
2021/06/24 07:03:57;;;;;;;8.53;5.83;;;30.30;99.90;;;;;;5093722;28;20435;-67
2021/06/24 07:06:25;;;;;;;7.80;5.90;;;30.50;99.90;;;;;;5093792;28;20430;-68
2021/06/24 07:08:51;;;;;;;16.20;7.00;;;30.30;99.90;;;;;;5095146;28;20242;-67
2021/06/24 07:11:17;;;;;;;17.43;6.40;;;30.40;99.90;;;;;;5093475;28;20436;-66
2021/06/24 07:13:43;;;;;;;12.70;5.90;;;30.60;99.90;;;;;;5095879;28;20432;-67
2021/06/24 07:16:09;;;;;;;12.00;6.70;;;30.80;99.90;;;;;;5109860;28;20209;-65
2021/06/24 07:18:35;;;;;;;12.53;5.63;;;30.80;99.90;;;;;;5091654;28;20449;-66
2021/06/24 07:21:00;;;;;;;14.10;6.73;;;30.90;99.90;;;;;;5094721;28;20216;-67
2021/06/24 07:23:26;;;;;;;15.30;6.10;;;31.00;99.90;;;;;;5097924;28;20220;-66
2021/06/24 07:25:52;;;;;;;12.83;7.10;;;31.20;99.90;;;;;;5092423;28;20209;-66
2021/06/24 07:28:17;;;;;;;11.27;6.10;;;31.60;99.90;;;;;;5089414;28;20308;-68
2021/06/24 07:30:43;;;;;;;15.27;7.63;;;31.50;99.90;;;;;;5091967;28;20208;-66
2021/06/24 07:33:09;;;;;;;15.10;6.63;;;31.50;99.90;;;;;;5091918;28;20193;-67
2021/06/24 07:35:35;;;;;;;10.90;5.37;;;31.60;99.90;;;;;;5092508;28;20198;-68
2021/06/24 07:38:02;;;;;;;10.83;6.17;;;31.90;99.90;;;;;;5089364;28;20565;-68
2021/06/24 07:40:28;;;;;;;9.83;5.37;;;31.60;99.90;;;;;;5090346;28;20447;-68
2021/06/24 07:42:53;;;;;;;23.73;6.33;;;31.70;99.90;;;;;;5094030;28;20804;-68
2021/06/24 07:45:19;;;;;;;9.27;6.43;;;32.00;99.90;;;;;;5093430;28;20671;-65
2021/06/24 07:47:45;;;;;;;18.00;6.90;;;31.90;99.90;;;;;;5094119;28;20532;-66
2021/06/24 07:50:11;;;;;;;13.20;5.70;;;32.00;99.90;;;;;;5093642;28;20636;-66
2021/06/24 07:52:36;;;;;;;14.30;5.67;;;31.90;98.50;;;;;;5092482;28;20187;-67
2021/06/24 07:55:03;;;;;;;13.07;4.93;;;32.00;98.20;;;;;;5107175;28;20423;-66
2021/06/24 07:57:29;;;;;;;13.87;5.57;;;32.20;99.30;;;;;;5093124;28;20173;-69
2021/06/24 07:59:56;;;;;;;12.13;5.83;;;32.40;99.60;;;;;;5092309;28;20812;-66
2021/06/24 08:02:21;;;;;;;9.13;5.10;;;32.40;97.10;;;;;;5093457;28;20188;-66
2021/06/24 08:04:47;;;;;;;16.23;6.00;;;32.60;98.40;;;;;;5093193;28;20407;-68
2021/06/24 08:07:13;;;;;;;16.63;5.10;;;32.60;97.40;;;;;;5093015;28;20184;-66
2021/06/24 08:09:38;;;;;;;16.30;5.10;;;32.60;98.00;;;;;;5093525;28;20215;-66
2021/06/24 08:12:05;;;;;;;11.53;5.23;;;32.70;98.40;;;;;;5094499;28;20305;-66
2021/06/24 08:14:30;;;;;;;13.93;5.57;;;32.90;98.40;;;;;;5092395;28;20172;-69
2021/06/24 08:16:56;;;;;;;12.90;5.33;;;33.20;98.00;;;;;;5093038;28;20441;-68
2021/06/24 08:19:22;;;;;;;9.20;4.83;;;33.40;97.30;;;;;;5110381;28;20207;-68
2021/06/24 08:21:48;;;;;;;13.37;5.70;;;33.40;97.80;;;;;;5094200;28;20196;-68
2021/06/24 08:24:13;;;;;;;10.97;5.47;;;33.60;96.90;;;;;;5094555;28;20220;-66
2021/06/24 08:26:39;;;;;;;11.20;5.23;;;33.40;96.60;;;;;;5094117;28;20642;-66
2021/06/24 08:29:05;;;;;;;11.70;5.27;;;33.40;97.50;;;;;;5091656;28;20208;-68
2021/06/24 08:31:31;;;;;;;10.80;5.77;;;33.40;97.80;;;;;;5090688;28;20285;-67
2021/06/24 08:33:56;;;;;;;14.13;5.37;;;33.30;97.00;;;;;;5091234;28;20219;-66
2021/06/24 08:36:22;;;;;;;12.33;5.07;;;33.60;96.90;;;;;;5092962;28;20246;-65
2021/06/24 08:38:48;;;;;;;10.27;4.77;;;33.70;97.40;;;;;;5093504;28;20209;-66
2021/06/24 08:41:15;;;;;;;12.70;4.97;;;34.10;95.80;;;;;;5108497;28;20226;-66
2021/06/24 08:43:41;;;;;;;11.53;5.17;;;33.80;96.50;;;;;;5094697;28;20230;-66
2021/06/24 08:46:07;;;;;;;16.13;5.17;;;33.90;95.70;;;;;;5094206;28;20793;-67
2021/06/24 08:48:35;;;;;;;11.03;5.33;;;34.20;96.20;;;;;;5087997;28;20546;-66
2021/06/24 08:51:02;;;;;;;14.90;4.33;;;34.00;94.50;;;;;;5091880;28;20925;-66
2021/06/24 08:53:31;;;;;;;16.03;4.90;;;33.90;94.70;;;;;;5091742;28;20436;-66
2021/06/24 08:55:56;;;;;;;18.80;5.77;;;34.00;94.00;;;;;;5092340;28;20813;-67
2021/06/24 08:58:23;;;;;;;10.33;4.73;;;34.10;94.80;;;;;;5094169;28;20433;-66
2021/06/24 09:00:50;;;;;;;12.30;4.93;;;34.20;93.60;;;;;;5092820;28;20196;-66
2021/06/24 09:03:24;;;;;;;11.47;4.80;;;34.00;93.90;;;;;;5089645;28;20443;-65
2021/06/24 09:08:57;;;;;;;10.33;4.60;;;34.10;94.10;;;;;;5093642;28;20552;-65
2021/06/24 09:11:25;;;;;;;10.30;4.23;;;34.30;94.20;;;;;;5090448;28;20440;-66
2021/06/24 09:14:01;;;;;;;14.40;6.00;;;34.70;94.50;;;;;;5093064;28;20515;-67
2021/06/24 09:16:29;;;;;;;13.23;5.03;;;34.70;93.20;;;;;;5092000;28;20941;-68
2021/06/24 09:19:15;;;;;;;14.03;5.40;;;34.80;93.60;;;;;;5092468;28;20449;-66
2021/06/24 09:21:42;;;;;;;14.30;5.20;;;34.70;91.80;;;;;;5090953;28;20949;-66
2021/06/24 09:24:24;;;;;;;15.70;5.33;;;34.60;92.40;;;;;;5091904;28;20992;-68
2021/06/24 09:26:54;;;;;;;9.43;4.60;;;34.90;92.80;;;;;;5090669;28;20436;-67
2021/06/24 09:29:20;;;;;;;14.53;6.27;;;34.80;92.70;;;;;;5090781;28;20460;-69
2021/06/24 09:31:57;;;;;;;7.87;4.80;;;34.90;92.70;;;;;;5089927;28;20437;-66
2021/06/24 09:34:23;;;;;;;12.87;5.40;;;35.30;92.20;;;;;;5091570;28;20417;-66
2021/06/24 09:36:51;;;;;;;11.63;5.27;;;35.30;92.30;;;;;;5091792;28;20436;-66
2021/06/24 09:39:28;;;;;;;15.23;5.33;;;35.30;91.80;;;;;;5091432;28;20417;-66
2021/06/24 09:42:05;;;;;;;19.00;5.40;;;35.40;91.20;;;;;;5091830;28;20859;-66
2021/06/24 09:44:33;;;;;;;6.93;4.37;;;35.40;91.70;;;;;;5090774;28;20820;-68
2021/06/24 09:47:00;;;;;;;9.43;4.60;;;35.40;92.50;;;;;;5088200;28;21019;-65
2021/06/24 09:49:34;;;;;;;12.40;5.37;;;35.30;91.00;;;;;;5088819;28;20460;-67
2021/06/24 09:52:02;;;;;;;16.00;5.70;;;35.10;90.30;;;;;;5088905;28;20476;-67
2021/06/24 09:54:33;;;;;;;10.60;5.27;;;35.20;90.20;;;;;;5089513;28;20490;-66
2021/06/24 09:56:59;;;;;;;9.70;5.50;;;35.10;90.30;;;;;;5088251;28;20441;-65
2021/06/24 09:59:39;;;;;;;13.83;6.60;;;35.40;90.50;;;;;;5090256;28;20413;-67
2021/06/24 10:02:13;;;;;;;19.37;5.70;;;35.70;91.00;;;;;;5091190;28;20212;-66
2021/06/24 10:04:41;;;;;;;13.53;5.90;;;35.70;90.10;;;;;;5091656;28;20514;-68
2021/06/24 10:07:11;;;;;;;13.43;7.13;;;35.20;88.10;;;;;;5091437;28;20461;-68
2021/06/24 10:09:38;;;;;;;17.27;7.40;;;35.40;89.50;;;;;;5091157;28;21003;-67
2021/06/24 10:12:05;;;;;;;12.00;6.23;;;35.90;89.60;;;;;;5090484;28;20457;-69
2021/06/24 10:14:31;;;;;;;13.50;6.53;;;35.80;90.00;;;;;;5091203;28;20520;-68
2021/06/24 10:16:58;;;;;;;14.00;6.53;;;35.60;89.90;;;;;;5090394;28;20516;-65
2021/06/24 10:19:26;;;;;;;12.10;5.90;;;35.70;90.00;;;;;;5094130;28;20168;-68
2021/06/24 10:21:57;;;;;;;13.00;5.63;;;36.20;90.30;;;;;;5093728;28;20441;-65
2021/06/24 10:24:35;;;;;;;15.33;6.83;;;36.00;90.20;;;;;;5095624;28;20969;-67
2021/06/24 10:27:07;;;;;;;12.70;6.13;;;36.20;88.90;;;;;;5093710;28;20449;-68
2021/06/24 10:29:47;;;;;;;11.53;5.63;;;36.30;88.50;;;;;;5095390;28;20500;-68
2021/06/24 10:32:28;;;;;;;9.53;5.20;;;36.30;87.00;;;;;;5096890;28;20417;-68
2021/06/24 10:34:55;;;;;;;13.37;6.00;;;36.30;88.10;;;;;;5094966;28;20974;-67
2021/06/24 10:37:23;;;;;;;14.67;6.00;;;36.50;86.90;;;;;;5093821;28;20428;-66
2021/06/24 10:39:51;;;;;;;18.17;5.90;;;36.30;87.00;;;;;;5088190;28;20857;-65
2021/06/24 10:42:18;;;;;;;14.87;6.00;;;36.60;88.00;;;;;;5092156;28;20413;-66
2021/06/24 10:44:53;;;;;;;12.87;6.03;;;36.50;86.70;;;;;;5090348;28;20424;-65
2021/06/24 10:47:32;;;;;;;17.77;6.90;;;36.20;86.30;;;;;;5092613;28;20787;-65
2021/06/24 10:52:55;;;;;;;22.40;6.77;;;36.40;88.10;;;;;;5095924;28;21013;-65
2021/06/24 10:55:42;;;;;;;15.77;7.07;;;36.20;86.90;;;;;;5093927;28;20871;-65
2021/06/24 10:58:10;;;;;;;18.63;6.77;;;36.20;87.90;;;;;;5092307;28;20933;-68
2021/06/24 11:00:42;;;;;;;19.27;6.73;;;36.20;86.50;;;;;;5091736;28;20984;-67
2021/06/24 11:03:10;;;;;;;17.93;6.17;;;36.20;86.40;;;;;;5095164;28;20791;-66
2021/06/24 11:05:41;;;;;;;15.67;6.57;;;36.30;87.00;;;;;;5093779;28;20953;-67
2021/06/24 11:08:40;;;;;;;9.03;6.40;;;36.90;85.50;;;;;;5095092;28;20798;-65
2021/06/24 11:11:18;;;;;;;14.27;7.20;;;36.40;85.70;;;;;;5093846;28;20437;-66
2021/06/24 11:13:49;;;;;;;9.47;6.37;;;36.40;86.70;;;;;;5094493;28;20972;-66
2021/06/24 11:16:16;;;;;;;20.20;7.30;;;36.50;86.00;;;;;;5095760;28;20801;-66
2021/06/24 11:18:44;;;;;;;16.37;7.33;;;36.40;86.00;;;;;;5093516;28;20454;-65
2021/06/24 11:21:14;;;;;;;16.73;7.03;;;36.80;84.10;;;;;;5094275;28;20432;-65
2021/06/24 11:23:55;;;;;;;19.50;7.20;;;36.50;86.00;;;;;;5091624;28;20616;-66
2021/06/24 11:26:26;;;;;;;20.17;7.50;;;36.80;84.90;;;;;;5094895;28;20629;-65
2021/06/24 11:29:10;;;;;;;15.30;8.00;;;36.60;85.70;;;;;;5092542;28;20468;-67
2021/06/24 11:31:45;;;;;;;24.60;7.60;;;36.30;85.30;;;;;;5091163;28;20436;-66
2021/06/24 11:37:01;;;;;;;17.50;7.67;;;36.70;84.60;;;;;;5093475;28;20429;-68
2021/06/24 11:39:33;;;;;;;17.27;7.70;;;36.90;86.50;;;;;;5090958;28;20429;-66
2021/06/24 11:42:13;;;;;;;18.13;7.53;;;37.30;84.50;;;;;;5093972;28;20961;-66
2021/06/24 11:44:46;;;;;;;17.67;7.70;;;36.90;84.20;;;;;;5094625;28;20456;-67
2021/06/24 11:47:16;;;;;;;20.60;8.70;;;37.20;83.00;;;;;;5094702;28;20418;-67
2021/06/24 12:03:29;;;;;;;14.97;8.07;;;37.20;84.70;;;;;;5093812;28;20767;-67
2021/06/24 12:05:57;;;;;;;22.10;10.37;;;37.10;85.40;;;;;;5090694;28;20901;-69
2021/06/24 12:08:25;;;;;;;17.60;8.37;;;37.10;84.00;;;;;;5089885;28;20224;-67
2021/06/24 12:11:10;;;;;;;16.83;9.40;;;37.60;85.30;;;;;;5092983;28;20464;-69
2021/06/24 12:13:38;;;;;;;21.20;9.47;;;37.30;86.50;;;;;;5091389;28;20425;-69
2021/06/24 12:16:05;;;;;;;19.73;9.57;;;37.60;84.50;;;;;;5093973;28;20451;-69
2021/06/24 12:18:42;;;;;;;19.27;9.07;;;37.90;83.30;;;;;;5094819;28;20910;-68
2021/06/24 12:21:12;;;;;;;13.57;8.17;;;37.40;83.80;;;;;;5092448;28;20444;-67
2021/06/24 12:23:43;;;;;;;22.37;8.90;;;37.00;82.80;;;;;;5094541;28;20469;-68
2021/06/24 12:26:11;;;;;;;15.20;8.70;;;36.80;85.80;;;;;;5092729;28;20552;-69
2021/06/24 12:28:38;;;;;;;13.73;9.33;;;37.00;85.50;;;;;;5088352;28;20957;-67
2021/06/24 12:31:06;;;;;;;21.77;10.13;;;37.30;84.20;;;;;;5092026;28;20490;-69
2021/06/24 12:33:32;;;;;;;16.43;8.57;;;37.20;85.50;;;;;;5092636;28;20432;-68
2021/06/24 12:35:59;;;;;;;21.77;10.40;;;37.10;83.50;;;;;;5090907;28;20431;-68
2021/06/24 12:38:26;;;;;;;19.53;10.03;;;37.10;84.40;;;;;;5092269;28;20421;-67
2021/06/24 12:41:14;;;;;;;18.63;10.30;;;37.40;83.90;;;;;;5090980;28;20512;-66
2021/06/24 12:43:40;;;;;;;16.23;9.80;;;37.50;83.80;;;;;;5092367;28;20455;-67
2021/06/24 12:46:07;;;;;;;18.20;10.77;;;37.70;83.80;;;;;;5092296;28;20486;-68
2021/06/24 12:48:34;;;;;;;19.30;9.97;;;37.80;85.40;;;;;;5091620;28;20581;-67
2021/06/24 12:51:28;;;;;;;19.60;9.70;;;37.90;83.90;;;;;;5091931;28;20424;-68
2021/06/24 12:53:54;;;;;;;24.20;9.70;;;37.80;83.40;;;;;;5088294;28;20455;-68
2021/06/24 12:56:31;;;;;;;23.90;10.77;;;37.80;83.00;;;;;;5091178;28;20456;-68
2021/06/24 12:59:07;;;;;;;21.13;11.07;;;37.80;83.20;;;;;;5088309;28;20958;-68
2021/06/24 13:01:43;;;;;;;21.20;10.10;;;37.30;84.60;;;;;;5090620;28;20453;-66
2021/06/24 13:04:20;;;;;;;20.20;10.57;;;37.30;83.80;;;;;;5090313;28;20431;-69